Time;durP1;ratioP1;P1;durP2;ratioP2;P2;SDS_P1;SDS_P2;PMS_P1;PMS_P2;Temp;Humidity;BMP_temperature;BMP_pressure;BME280_temperature;BME280_humidity;BME280_pressure;Samples;Min_cycle;Max_cycle;Signal;HPM_P1;HPM_P2
2021/10/17 00:01:47;;;;;;;;;;;18.10;44.20;;;;;;8236885;28;19914;-51
2021/10/17 00:05:48;;;;;;;;;;;18.10;44.20;;;;;;8236970;28;19980;-50
2021/10/17 00:09:48;;;;;;;;;;;18.10;44.10;;;;;;8210987;28;19918;-50
2021/10/17 00:13:49;;;;;;;;;;;18.10;44.20;;;;;;8219487;28;19914;-49
2021/10/17 00:17:50;;;;;;;;;;;18.10;44.20;;;;;;8236051;28;19940;-50
2021/10/17 00:21:50;;;;;;;;;;;18.10;44.10;;;;;;8236297;28;19917;-50
2021/10/17 00:25:51;;;;;;;;;;;18.10;44.10;;;;;;8236222;28;19922;-51
2021/10/17 00:29:51;;;;;;;;;;;18.10;44.10;;;;;;8235691;28;19918;-50
2021/10/17 00:33:52;;;;;;;;;;;18.10;44.10;;;;;;8235866;28;19914;-49
2021/10/17 00:37:52;;;;;;;;;;;18.10;44.10;;;;;;8236198;28;20045;-50
2021/10/17 00:41:52;;;;;;;;;;;18.10;44.10;;;;;;8234745;28;19914;-50
2021/10/17 00:45:53;;;;;;;;;;;18.00;44.10;;;;;;8234744;28;19929;-49
2021/10/17 00:49:54;;;;;;;;;;;18.00;44.10;;;;;;8234837;28;20275;-49
2021/10/17 00:53:54;;;;;;;;;;;18.00;44.00;;;;;;8234763;28;20049;-49
2021/10/17 00:57:55;;;;;;;;;;;18.10;44.10;;;;;;8235350;28;19968;-48
2021/10/17 01:01:56;;;;;;;;;;;18.00;44.10;;;;;;8234810;28;20057;-49
2021/10/17 01:05:56;;;;;;;;;;;18.00;44.10;;;;;;8233519;28;19922;-49
2021/10/17 01:10:00;;;;;;;;;;;18.00;44.10;;;;;;8234715;28;19914;-49
2021/10/17 01:14:00;;;;;;;;;;;18.00;44.00;;;;;;8235075;28;19914;-49
2021/10/17 01:18:02;;;;;;;;;;;18.00;44.00;;;;;;8233877;28;19953;-49
2021/10/17 01:22:03;;;;;;;;;;;18.00;44.00;;;;;;8234328;28;20005;-48
2021/10/17 01:26:04;;;;;;;;;;;18.00;44.00;;;;;;8233684;28;20437;-49
2021/10/17 01:30:05;;;;;;;;;;;18.00;44.10;;;;;;8233636;28;20041;-49
2021/10/17 01:34:07;;;;;;;;;;;17.90;44.00;;;;;;8234426;28;19948;-49
2021/10/17 01:38:07;;;;;;;;;;;18.00;44.10;;;;;;8233538;28;19992;-49
2021/10/17 01:42:08;;;;;;;;;;;17.90;44.00;;;;;;8233341;28;19914;-49
2021/10/17 01:46:08;;;;;;;;;;;17.90;44.00;;;;;;8233304;28;19926;-49
2021/10/17 01:50:09;;;;;;;;;;;17.90;44.00;;;;;;8234035;28;19930;-49
2021/10/17 01:54:09;;;;;;;;;;;17.90;44.00;;;;;;8232509;28;19925;-53
2021/10/17 01:58:10;;;;;;;;;;;17.90;44.00;;;;;;8233207;28;20406;-52
2021/10/17 02:02:10;;;;;;;;;;;17.90;44.00;;;;;;8233085;28;19918;-49
2021/10/17 02:06:11;;;;;;;;;;;17.90;44.00;;;;;;8233194;28;19940;-49
2021/10/17 02:10:11;;;;;;;;;;;17.90;44.00;;;;;;8233580;28;20279;-49
2021/10/17 02:14:12;;;;;;;;;;;17.90;44.00;;;;;;8232781;28;19918;-49
2021/10/17 02:18:12;;;;;;;;;;;17.90;44.10;;;;;;8232209;28;19945;-49
2021/10/17 02:22:13;;;;;;;;;;;17.90;44.00;;;;;;8232820;28;19914;-50
2021/10/17 02:26:13;;;;;;;;;;;17.90;44.00;;;;;;8233459;28;19929;-50
2021/10/17 02:30:14;;;;;;;;;;;17.90;44.00;;;;;;8232469;28;19944;-50
2021/10/17 02:34:15;;;;;;;;;;;17.90;44.00;;;;;;8232304;28;19964;-49
2021/10/17 02:38:15;;;;;;;;;;;17.90;44.00;;;;;;8232425;28;19914;-49
2021/10/17 02:42:15;;;;;;;;;;;17.80;44.00;;;;;;8234432;28;19965;-53
2021/10/17 02:46:16;;;;;;;;;;;17.90;44.00;;;;;;8238775;28;19922;-49
2021/10/17 02:50:16;;;;;;;;;;;17.80;44.00;;;;;;8238793;28;19957;-50
2021/10/17 02:54:17;;;;;;;;;;;17.90;44.00;;;;;;8238253;28;20015;-49
2021/10/17 02:58:18;;;;;;;;;;;17.80;44.00;;;;;;8239781;28;19914;-50
2021/10/17 03:02:18;;;;;;;;;;;17.80;44.00;;;;;;8238429;28;19925;-50
2021/10/17 03:06:24;;;;;;;;;;;17.80;44.00;;;;;;8237885;28;19933;-50
2021/10/17 03:10:25;;;;;;;;;;;17.80;44.00;;;;;;8244325;28;19925;-49
2021/10/17 03:14:25;;;;;;;;;;;17.80;44.00;;;;;;8237783;28;20284;-51
2021/10/17 03:18:26;;;;;;;;;;;17.80;44.00;;;;;;8238199;28;19925;-49
2021/10/17 03:22:26;;;;;;;;;;;17.80;44.10;;;;;;8238058;28;19946;-49
2021/10/17 03:26:27;;;;;;;;;;;17.80;44.10;;;;;;8237608;28;20004;-49
2021/10/17 03:30:27;;;;;;;;;;;17.80;44.10;;;;;;8237188;28;19914;-49
2021/10/17 03:34:27;;;;;;;;;;;17.80;44.10;;;;;;8238288;28;19914;-48
2021/10/17 03:38:28;;;;;;;;;;;17.80;44.10;;;;;;8237663;28;20001;-49
2021/10/17 03:42:28;;;;;;;;;;;17.80;44.10;;;;;;8237314;28;19933;-50
2021/10/17 03:46:29;;;;;;;;;;;17.80;44.10;;;;;;8237335;28;19936;-49
2021/10/17 03:50:29;;;;;;;;;;;17.80;44.10;;;;;;8237424;28;19937;-48
2021/10/17 03:54:30;;;;;;;;;;;17.80;44.10;;;;;;8236234;28;20298;-49
2021/10/17 03:58:30;;;;;;;;;;;17.80;44.10;;;;;;8236965;28;20371;-48
2021/10/17 04:02:31;;;;;;;;;;;17.80;44.00;;;;;;8236794;28;19917;-49
2021/10/17 04:06:31;;;;;;;;;;;17.80;44.00;;;;;;8235665;28;20375;-49
2021/10/17 04:10:32;;;;;;;;;;;17.80;44.10;;;;;;8237366;28;19941;-48
2021/10/17 04:14:32;;;;;;;;;;;17.80;44.10;;;;;;8236580;28;20036;-51
2021/10/17 04:18:33;;;;;;;;;;;17.80;44.10;;;;;;8235849;28;20280;-50
2021/10/17 04:22:34;;;;;;;;;;;17.80;44.10;;;;;;8236338;28;19952;-49
2021/10/17 04:26:34;;;;;;;;;;;17.80;44.10;;;;;;8236844;28;19928;-49
2021/10/17 04:30:35;;;;;;;;;;;17.80;44.10;;;;;;8235725;28;19920;-50
2021/10/17 04:34:36;;;;;;;;;;;17.70;44.10;;;;;;8235989;28;19961;-49
2021/10/17 04:38:38;;;;;;;;;;;17.80;44.10;;;;;;8235934;28;19921;-49
2021/10/17 04:42:38;;;;;;;;;;;17.70;44.10;;;;;;8234957;28;20283;-48
2021/10/17 04:46:39;;;;;;;;;;;17.80;44.20;;;;;;8236108;28;19926;-48
2021/10/17 04:50:39;;;;;;;;;;;17.70;44.10;;;;;;8235767;28;19914;-50
2021/10/17 04:54:40;;;;;;;;;;;17.70;44.20;;;;;;8235707;28;20009;-49
2021/10/17 04:58:40;;;;;;;;;;;17.70;44.10;;;;;;8235452;28;19911;-48
2021/10/17 05:02:41;;;;;;;;;;;17.70;44.10;;;;;;8235784;28;19972;-50
2021/10/17 05:06:41;;;;;;;;;;;17.70;44.10;;;;;;8234501;28;19926;-49
2021/10/17 05:10:41;;;;;;;;;;;17.70;44.10;;;;;;8234771;28;19918;-49
2021/10/17 05:14:42;;;;;;;;;;;17.70;44.20;;;;;;8234372;28;20284;-46
2021/10/17 05:18:42;;;;;;;;;;;17.70;44.10;;;;;;8235345;28;20105;-50
2021/10/17 05:22:43;;;;;;;;;;;17.70;44.10;;;;;;8234406;28;19914;-49
2021/10/17 05:26:43;;;;;;;;;;;17.70;44.10;;;;;;8233975;28;19926;-49
2021/10/17 05:30:44;;;;;;;;;;;17.70;44.10;;;;;;8234207;28;19961;-49
2021/10/17 05:34:44;;;;;;;;;;;17.70;44.20;;;;;;8234136;28;19969;-48
2021/10/17 05:38:44;;;;;;;;;;;17.70;44.10;;;;;;8234482;28;19910;-50
2021/10/17 05:42:45;;;;;;;;;;;17.70;44.10;;;;;;8234119;28;19921;-49
2021/10/17 05:46:45;;;;;;;;;;;17.70;44.10;;;;;;8233677;28;20000;-49
2021/10/17 05:50:46;;;;;;;;;;;17.70;44.20;;;;;;8233246;28;19914;-49
2021/10/17 05:54:46;;;;;;;;;;;17.70;44.20;;;;;;8234512;28;19918;-50
2021/10/17 05:58:47;;;;;;;;;;;17.70;44.20;;;;;;8233594;28;19914;-48
2021/10/17 06:02:48;;;;;;;;;;;17.70;44.10;;;;;;8233096;28;19918;-48
2021/10/17 06:06:48;;;;;;;;;;;17.70;44.20;;;;;;8233491;28;19930;-50
2021/10/17 06:10:49;;;;;;;;;;;17.70;44.20;;;;;;8234021;28;20291;-50
2021/10/17 06:14:49;;;;;;;;;;;17.70;44.10;;;;;;8233101;28;20014;-50
2021/10/17 06:18:50;;;;;;;;;;;17.70;44.20;;;;;;8232630;28;20037;-52
2021/10/17 06:22:51;;;;;;;;;;;17.70;44.20;;;;;;8232928;28;19925;-52
2021/10/17 06:26:51;;;;;;;;;;;17.70;44.20;;;;;;8232593;28;19930;-51
2021/10/17 06:30:52;;;;;;;;;;;17.70;44.20;;;;;;8234051;28;19914;-52
2021/10/17 06:34:52;;;;;;;;;;;17.70;44.20;;;;;;8232940;28;19942;-54
2021/10/17 06:38:53;;;;;;;;;;;17.60;44.20;;;;;;8232193;28;20387;-53
2021/10/17 06:42:53;;;;;;;;;;;17.70;44.20;;;;;;8232904;28;19918;-52
2021/10/17 06:46:54;;;;;;;;;;;17.70;44.20;;;;;;8233578;28;19929;-49
2021/10/17 06:50:55;;;;;;;;;;;17.70;44.20;;;;;;8232363;28;19914;-50
2021/10/17 06:54:55;;;;;;;;;;;17.60;44.20;;;;;;8233059;28;20367;-49
2021/10/17 06:58:56;;;;;;;;;;;17.70;44.30;;;;;;8232478;28;20368;-52
2021/10/17 07:02:56;;;;;;;;;;;17.70;44.20;;;;;;8231437;28;19914;-50
2021/10/17 07:06:57;;;;;;;;;;;17.70;44.30;;;;;;8232990;28;19957;-49
2021/10/17 07:10:58;;;;;;;;;;;17.70;44.20;;;;;;8232584;28;19914;-50
2021/10/17 07:14:58;;;;;;;;;;;17.70;44.30;;;;;;8232031;28;20367;-50
2021/10/17 07:18:59;;;;;;;;;;;17.70;44.30;;;;;;8232146;28;19925;-52
2021/10/17 07:22:59;;;;;;;;;;;17.70;44.20;;;;;;8233162;28;19915;-50
2021/10/17 07:27:00;;;;;;;;;;;17.70;44.30;;;;;;8231605;28;20009;-53
2021/10/17 07:31:00;;;;;;;;;;;17.70;44.20;;;;;;8237706;28;19914;-49
2021/10/17 07:35:01;;;;;;;;;;;17.70;44.30;;;;;;8237715;28;19965;-49
2021/10/17 07:39:02;;;;;;;;;;;17.70;44.30;;;;;;8237978;28;19924;-49
2021/10/17 07:43:02;;;;;;;;;;;17.70;44.30;;;;;;8237891;28;20378;-49
2021/10/17 07:47:04;;;;;;;;;;;17.70;44.30;;;;;;8237672;28;19922;-49
2021/10/17 07:51:05;;;;;;;;;;;17.70;44.30;;;;;;8237057;28;19921;-50
2021/10/17 07:55:06;;;;;;;;;;;17.70;44.30;;;;;;8237669;28;20367;-49
2021/10/17 07:59:07;;;;;;;;;;;17.70;44.30;;;;;;8238108;28;20295;-51
2021/10/17 08:03:08;;;;;;;;;;;17.70;44.40;;;;;;8237130;28;19914;-51
2021/10/17 08:07:08;;;;;;;;;;;17.70;44.40;;;;;;8236749;28;20367;-49
2021/10/17 08:11:09;;;;;;;;;;;17.70;44.40;;;;;;8236753;28;19918;-48
2021/10/17 08:15:10;;;;;;;;;;;17.70;44.40;;;;;;8236877;28;19961;-49
2021/10/17 08:19:10;;;;;;;;;;;17.70;45.00;;;;;;8236746;28;20372;-49
2021/10/17 08:23:10;;;;;;;;;;;17.70;44.50;;;;;;8236522;28;19941;-50
2021/10/17 08:27:11;;;;;;;;;;;17.70;44.50;;;;;;8235207;28;20012;-50
2021/10/17 08:31:11;;;;;;;;;;;17.70;44.50;;;;;;8235910;28;19922;-49
2021/10/17 08:35:12;;;;;;;;;;;17.70;44.60;;;;;;8235936;28;19921;-49
2021/10/17 08:39:13;;;;;;;;;;;17.70;44.50;;;;;;8233960;28;19914;-50
2021/10/17 08:43:13;;;;;;;;;;;17.70;44.50;;;;;;8235369;28;20004;-48
2021/10/17 08:47:17;;;;;;;;;;;17.70;44.50;;;;;;8235667;28;19929;-49
2021/10/17 08:51:20;;;;;;;;;;;17.70;44.60;;;;;;8235929;28;19914;-49
2021/10/17 08:55:21;;;;;;;;;;;17.70;44.60;;;;;;8235916;28;19981;-49
2021/10/17 08:59:21;;;;;;;;;;;17.70;44.60;;;;;;8235327;28;19925;-49
2021/10/17 09:03:32;;;;;;;;;;;17.70;44.60;;;;;;8234721;28;19918;-49
2021/10/17 09:07:33;;;;;;;;;;;17.70;44.60;;;;;;8235685;28;20399;-49
2021/10/17 09:11:37;;;;;;;;;;;17.80;44.60;;;;;;8234885;28;19914;-49
2021/10/17 09:15:39;;;;;;;;;;;17.80;44.60;;;;;;8234268;28;19937;-49
2021/10/17 09:19:39;;;;;;;;;;;17.70;44.60;;;;;;8235039;28;20378;-50
2021/10/17 09:23:40;;;;;;;;;;;17.80;44.60;;;;;;8234557;28;19956;-50
2021/10/17 09:27:41;;;;;;;;;;;17.80;44.60;;;;;;8234753;28;19926;-52
2021/10/17 09:31:52;;;;;;;;;;;17.80;44.60;;;;;;8234301;28;19933;-52
2021/10/17 09:35:53;;;;;;;;;;;17.80;44.60;;;;;;8233831;28;20306;-50
2021/10/17 09:40:20;;;;;;;;;;;17.80;44.60;;;;;;8233951;28;19914;-50
2021/10/17 09:44:20;;;;;;;;;;;17.80;44.60;;;;;;8234141;28;19918;-49
2021/10/17 09:48:28;;;;;;;;;;;17.80;44.70;;;;;;8234044;28;19973;-49
2021/10/17 09:52:29;;;;;;;;;;;17.80;44.70;;;;;;8233061;28;19972;-50
2021/10/17 09:56:33;;;;;;;;;;;17.80;44.70;;;;;;8233667;28;19921;-50
2021/10/17 10:00:36;;;;;;;;;;;17.80;44.70;;;;;;8233031;28;19946;-50
2021/10/17 10:04:43;;;;;;;;;;;17.80;44.70;;;;;;8232704;28;19914;-51
2021/10/17 10:08:44;;;;;;;;;;;17.80;44.70;;;;;;8233203;28;20005;-50
2021/10/17 10:12:46;;;;;;;;;;;17.80;44.70;;;;;;8232386;28;19914;-51
2021/10/17 10:16:50;;;;;;;;;;;17.80;44.70;;;;;;8233421;28;19914;-52
2021/10/17 10:20:51;;;;;;;;;;;17.80;45.20;;;;;;8232932;28;19918;-49
2021/10/17 10:24:53;;;;;;;;;;;17.80;44.60;;;;;;8233820;28;20291;-50
2021/10/17 10:28:54;;;;;;;;;;;17.90;44.70;;;;;;8232898;28;20407;-52
2021/10/17 10:33:12;;;;;;;;;;;17.80;44.60;;;;;;8232544;28;19914;-53
2021/10/17 10:37:14;;;;;;;;;;;17.90;44.70;;;;;;8233315;28;19914;-53
2021/10/17 10:41:21;;;;;;;;;;;17.90;44.70;;;;;;8233575;28;19914;-50
2021/10/17 10:45:29;;;;;;;;;;;17.90;44.60;;;;;;8232817;28;19928;-51
2021/10/17 10:49:42;;;;;;;;;;;17.90;44.60;;;;;;8232617;28;20261;-50
2021/10/17 10:53:47;;;;;;;;;;;17.90;44.60;;;;;;8232576;28;19930;-48
2021/10/17 10:57:47;;;;;;;;;;;17.90;44.60;;;;;;8232824;28;20346;-50
2021/10/17 11:02:18;;;;;;;;;;;17.90;44.60;;;;;;8233145;28;19921;-50
2021/10/17 11:06:18;;;;;;;;;;;17.90;44.60;;;;;;8238694;28;19929;-48
2021/10/17 11:10:22;;;;;;;;;;;17.90;44.70;;;;;;8239184;28;19918;-49
2021/10/17 11:14:22;;;;;;;;;;;17.90;44.60;;;;;;8238576;28;19921;-51
2021/10/17 11:18:33;;;;;;;;;;;17.90;44.70;;;;;;8238144;28;19997;-49
2021/10/17 11:22:34;;;;;;;;;;;17.90;44.70;;;;;;8239095;28;19984;-53
2021/10/17 11:26:35;;;;;;;;;;;17.90;44.70;;;;;;8238056;28;19922;-50
2021/10/17 11:30:36;;;;;;;;;;;17.90;44.70;;;;;;8237514;28;19950;-52
2021/10/17 11:34:36;;;;;;;;;;;17.90;44.80;;;;;;8238124;28;19945;-50
2021/10/17 11:38:37;;;;;;;;;;;17.90;44.80;;;;;;8237677;28;19968;-50
2021/10/17 11:42:46;;;;;;;;;;;17.90;44.80;;;;;;8237931;28;19918;-50
2021/10/17 11:46:46;;;;;;;;;;;17.90;44.70;;;;;;8237500;28;19957;-50
2021/10/17 11:50:48;;;;;;;;;;;17.90;44.70;;;;;;8237413;28;20366;-50
2021/10/17 11:54:49;;;;;;;;;;;17.90;44.70;;;;;;8237623;28;19945;-53
2021/10/17 11:58:49;;;;;;;;;;;17.90;44.70;;;;;;8237715;28;19918;-53
2021/10/17 12:02:50;;;;;;;;;;;17.90;45.20;;;;;;8236787;28;19918;-50
2021/10/17 12:06:58;;;;;;;;;;;17.90;44.70;;;;;;8236756;28;19933;-50
2021/10/17 12:10:59;;;;;;;;;;;18.00;44.80;;;;;;8241525;28;19930;-52
2021/10/17 12:15:03;;;;;;;;;;;17.90;44.70;;;;;;8235138;28;19968;-49
2021/10/17 12:19:05;;;;;;;;;;;17.90;44.70;;;;;;8237224;28;20342;-50
2021/10/17 12:23:06;;;;;;;;;;;18.00;44.70;;;;;;8236446;28;19914;-53
2021/10/17 12:27:06;;;;;;;;;;;18.00;44.70;;;;;;8235982;28;19922;-52
2021/10/17 12:31:07;;;;;;;;;;;18.00;44.70;;;;;;8236231;28;20016;-50
2021/10/17 12:35:22;;;;;;;;;;;18.00;44.70;;;;;;8237026;28;19960;-50
2021/10/17 12:39:23;;;;;;;;;;;18.00;44.70;;;;;;8235425;28;19921;-50
2021/10/17 12:43:23;;;;;;;;;;;18.00;44.60;;;;;;8236142;28;19914;-50
2021/10/17 12:47:24;;;;;;;;;;;18.00;44.70;;;;;;8235643;28;20282;-51
2021/10/17 12:51:33;;;;;;;;;;;18.00;44.70;;;;;;8235206;28;19920;-50
2021/10/17 12:55:35;;;;;;;;;;;18.10;44.70;;;;;;8236850;28;19964;-50
2021/10/17 12:59:50;;;;;;;;;;;18.00;44.70;;;;;;8235673;28;19937;-52
2021/10/17 13:04:13;;;;;;;;;;;18.00;44.70;;;;;;8234700;28;19925;-53
2021/10/17 13:08:14;;;;;;;;;;;18.00;44.60;;;;;;8234704;28;19925;-50
2021/10/17 13:12:15;;;;;;;;;;;18.10;44.60;;;;;;8234633;28;20422;-49
2021/10/17 13:16:27;;;;;;;;;;;18.10;44.60;;;;;;8235687;28;19914;-52
2021/10/17 13:20:32;;;;;;;;;;;18.10;44.70;;;;;;8234944;28;19961;-53
2021/10/17 13:24:32;;;;;;;;;;;18.10;44.70;;;;;;8234550;28;19914;-51
2021/10/17 13:28:33;;;;;;;;;;;18.10;44.70;;;;;;8234146;28;19969;-51
2021/10/17 13:32:33;;;;;;;;;;;18.10;44.70;;;;;;8235318;28;19926;-50
2021/10/17 13:36:34;;;;;;;;;;;18.10;44.60;;;;;;8234115;28;19914;-50
2021/10/17 13:40:34;;;;;;;;;;;18.10;44.60;;;;;;8234500;28;19918;-50
2021/10/17 13:44:35;;;;;;;;;;;18.10;44.60;;;;;;8234547;28;19918;-50
2021/10/17 13:48:35;;;;;;;;;;;18.20;44.70;;;;;;8233885;28;19918;-49
2021/10/17 13:52:36;;;;;;;;;;;18.20;44.60;;;;;;8234229;28;19996;-51
2021/10/17 13:56:36;;;;;;;;;;;18.20;44.60;;;;;;8233868;28;20279;-50
2021/10/17 14:00:36;;;;;;;;;;;18.20;44.60;;;;;;8233822;28;19997;-49
2021/10/17 14:04:37;;;;;;;;;;;18.20;44.60;;;;;;8233645;28;19922;-48
2021/10/17 14:08:38;;;;;;;;;;;18.20;44.60;;;;;;8234167;28;20287;-50
2021/10/17 14:12:38;;;;;;;;;;;18.20;44.60;;;;;;8232977;28;19920;-50
2021/10/17 14:16:39;;;;;;;;;;;18.20;44.60;;;;;;8233623;28;19914;-50
2021/10/17 14:20:39;;;;;;;;;;;18.20;44.70;;;;;;8233415;28;19961;-50
2021/10/17 14:24:40;;;;;;;;;;;18.20;44.60;;;;;;8233557;28;19969;-52
2021/10/17 14:28:40;;;;;;;;;;;18.20;44.70;;;;;;8233166;28;20356;-50
2021/10/17 14:32:41;;;;;;;;;;;18.20;44.60;;;;;;8233102;28;20342;-50
2021/10/17 14:36:41;;;;;;;;;;;18.20;44.70;;;;;;8232586;28;20850;-52
2021/10/17 14:40:47;;;;;;;;;;;18.30;44.70;;;;;;8238309;28;19914;-50
2021/10/17 14:44:48;;;;;;;;;;;18.20;44.70;;;;;;8240749;28;20379;-50
2021/10/17 14:48:48;;;;;;;;;;;18.20;44.70;;;;;;8239432;28;19928;-50
2021/10/17 14:52:49;;;;;;;;;;;18.20;44.70;;;;;;8239483;28;19925;-50
2021/10/17 14:56:49;;;;;;;;;;;18.20;44.70;;;;;;8238602;28;19918;-49
2021/10/17 15:00:49;;;;;;;;;;;18.30;44.80;;;;;;8239676;28;19914;-49
2021/10/17 15:04:50;;;;;;;;;;;18.30;44.70;;;;;;8238757;28;20009;-50
2021/10/17 15:08:50;;;;;;;;;;;18.30;44.80;;;;;;8238293;28;19926;-50
2021/10/17 15:12:51;;;;;;;;;;;18.30;44.80;;;;;;8238516;28;19918;-51
2021/10/17 15:16:51;;;;;;;;;;;18.30;44.80;;;;;;8238966;28;20004;-49
2021/10/17 15:20:52;;;;;;;;;;;18.30;44.80;;;;;;8238110;28;19977;-52
2021/10/17 15:24:52;;;;;;;;;;;18.30;44.80;;;;;;8238723;28;19914;-50
2021/10/17 15:28:53;;;;;;;;;;;18.30;44.80;;;;;;8238121;28;20077;-50
2021/10/17 15:32:53;;;;;;;;;;;18.30;44.80;;;;;;8238084;28;19928;-51
2021/10/17 15:36:54;;;;;;;;;;;18.30;44.80;;;;;;8238707;28;19917;-51
2021/10/17 15:40:55;;;;;;;;;;;18.30;44.80;;;;;;8237860;28;20004;-49
2021/10/17 15:44:55;;;;;;;;;;;18.30;44.80;;;;;;8237490;28;19914;-50
2021/10/17 15:48:56;;;;;;;;;;;18.30;44.80;;;;;;8237429;28;19922;-52
2021/10/17 15:52:56;;;;;;;;;;;18.30;44.80;;;;;;8238416;28;19918;-51
2021/10/17 15:56:57;;;;;;;;;;;18.30;45.40;;;;;;8236840;28;19942;-50
2021/10/17 16:01:00;;;;;;;;;;;18.30;44.90;;;;;;8237592;28;19929;-51
2021/10/17 16:05:00;;;;;;;;;;;18.30;44.90;;;;;;8237383;28;20348;-50
2021/10/17 16:09:01;;;;;;;;;;;18.30;45.00;;;;;;8236203;28;19922;-52
2021/10/17 16:13:02;;;;;;;;;;;18.30;45.00;;;;;;8237365;28;19922;-51
2021/10/17 16:17:04;;;;;;;;;;;18.30;45.00;;;;;;8236663;28;19922;-50
2021/10/17 16:21:04;;;;;;;;;;;18.30;45.00;;;;;;8236271;28;19921;-50
2021/10/17 16:25:05;;;;;;;;;;;18.30;45.10;;;;;;8236712;28;20008;-50
2021/10/17 16:29:05;;;;;;;;;;;18.30;45.10;;;;;;8237183;28;19961;-49
2021/10/17 16:33:06;;;;;;;;;;;18.30;45.10;;;;;;8235787;28;19996;-49
2021/10/17 16:37:07;;;;;;;;;;;18.30;45.20;;;;;;8236200;28;19964;-49
2021/10/17 16:41:07;;;;;;;;;;;18.20;45.10;;;;;;8236168;28;19910;-51
2021/10/17 16:45:08;;;;;;;;;;;18.20;45.10;;;;;;8236073;28;19921;-49
2021/10/17 16:49:08;;;;;;;;;;;18.20;45.10;;;;;;8235609;28;20020;-50
2021/10/17 16:53:09;;;;;;;;;;;18.20;45.20;;;;;;8235830;28;19918;-49
2021/10/17 16:57:09;;;;;;;;;;;18.20;45.20;;;;;;8235205;28;19914;-50
2021/10/17 17:01:10;;;;;;;;;;;18.30;45.20;;;;;;8234826;28;19920;-50
2021/10/17 17:05:10;;;;;;;;;;;18.20;45.20;;;;;;8235979;28;19917;-50
2021/10/17 17:09:11;;;;;;;;;;;18.20;45.20;;;;;;8234537;28;19929;-51
2021/10/17 17:13:11;;;;;;;;;;;18.20;45.20;;;;;;8234885;28;19936;-49
2021/10/17 17:17:12;;;;;;;;;;;18.20;45.20;;;;;;8234790;28;19914;-50
2021/10/17 17:21:12;;;;;;;;;;;18.20;45.20;;;;;;8235093;28;19914;-51
2021/10/17 17:25:14;;;;;;;;;;;18.20;45.20;;;;;;8234897;28;20268;-49
2021/10/17 17:29:15;;;;;;;;;;;18.20;45.20;;;;;;8234315;28;19929;-50
2021/10/17 17:33:16;;;;;;;;;;;18.20;45.20;;;;;;8234071;28;19914;-52
2021/10/17 17:37:16;;;;;;;;;;;18.20;45.20;;;;;;8235310;28;19910;-51
2021/10/17 17:41:19;;;;;;;;;;;18.20;45.20;;;;;;8234230;28;19957;-50
2021/10/17 17:45:20;;;;;;;;;;;18.20;45.20;;;;;;8233617;28;19918;-50
2021/10/17 17:49:20;;;;;;;;;;;18.20;45.20;;;;;;8234345;28;20398;-50
2021/10/17 17:53:21;;;;;;;;;;;18.20;45.10;;;;;;8234173;28;20267;-52
2021/10/17 17:57:23;;;;;;;;;;;18.20;45.10;;;;;;8234168;28;20294;-50
2021/10/17 18:01:23;;;;;;;;;;;18.20;45.10;;;;;;8233982;28;19917;-52
2021/10/17 18:05:24;;;;;;;;;;;18.20;45.10;;;;;;8234586;28;20005;-49
2021/10/17 18:09:24;;;;;;;;;;;18.20;45.10;;;;;;8234643;28;19918;-49
2021/10/17 18:13:27;;;;;;;;;;;18.20;45.10;;;;;;8235019;28;20024;-49
2021/10/17 18:17:27;;;;;;;;;;;18.20;45.10;;;;;;8234103;28;19918;-53
2021/10/17 18:21:27;;;;;;;;;;;18.20;45.10;;;;;;8232590;28;19921;-52
2021/10/17 18:25:31;;;;;;;;;;;18.20;45.10;;;;;;8233020;28;19980;-49
2021/10/17 18:29:32;;;;;;;;;;;18.20;45.10;;;;;;8233061;28;20419;-53
2021/10/17 18:33:32;;;;;;;;;;;18.20;45.00;;;;;;8233103;28;19910;-50
2021/10/17 18:37:33;;;;;;;;;;;18.20;45.10;;;;;;8233151;28;20032;-53
2021/10/17 18:41:33;;;;;;;;;;;18.20;45.00;;;;;;8232873;28;19921;-51
2021/10/17 18:45:34;;;;;;;;;;;18.20;45.00;;;;;;8232711;28;19967;-50
2021/10/17 18:49:34;;;;;;;;;;;18.20;45.00;;;;;;8233601;28;19917;-52
2021/10/17 18:53:35;;;;;;;;;;;18.20;45.00;;;;;;8233132;28;19918;-51
2021/10/17 18:57:36;;;;;;;;;;;18.20;45.00;;;;;;8232173;28;19922;-53
2021/10/17 19:01:36;;;;;;;;;;;18.20;45.00;;;;;;8232822;28;19976;-51
2021/10/17 19:05:37;;;;;;;;;;;18.20;45.00;;;;;;8232613;28;20260;-51
2021/10/17 19:09:38;;;;;;;;;;;18.20;45.00;;;;;;8232031;28;20013;-52
2021/10/17 19:13:38;;;;;;;;;;;18.20;44.90;;;;;;8232861;28;20024;-51
2021/10/17 19:17:39;;;;;;;;;;;18.20;44.90;;;;;;8232491;28;19914;-52
2021/10/17 19:21:39;;;;;;;;;;;18.20;44.90;;;;;;8231991;28;20420;-53
2021/10/17 19:25:39;;;;;;;;;;;18.20;44.90;;;;;;8236339;28;19914;-52
2021/10/17 19:29:40;;;;;;;;;;;18.20;44.90;;;;;;8238711;28;20359;-52
2021/10/17 19:33:40;;;;;;;;;;;18.20;44.90;;;;;;8237569;28;20232;-52
2021/10/17 19:37:41;;;;;;;;;;;18.10;44.80;;;;;;8238267;28;19914;-53
2021/10/17 19:41:41;;;;;;;;;;;18.20;44.80;;;;;;8238770;28;20282;-50
2021/10/17 19:45:42;;;;;;;;;;;18.20;44.80;;;;;;8237230;28;19917;-52
2021/10/17 19:49:42;;;;;;;;;;;18.20;44.80;;;;;;8237712;28;19918;-51
2021/10/17 19:53:42;;;;;;;;;;;18.20;44.80;;;;;;8237490;28;19918;-47
2021/10/17 19:57:44;;;;;;;;;;;18.20;44.80;;;;;;8238394;28;19917;-49
2021/10/17 20:01:44;;;;;;;;;;;18.20;44.80;;;;;;8237438;28;19914;-50
2021/10/17 20:05:46;;;;;;;;;;;18.10;44.70;;;;;;8236844;28;19925;-52
2021/10/17 20:09:46;;;;;;;;;;;18.10;44.80;;;;;;8237027;28;19914;-50
2021/10/17 20:13:47;;;;;;;;;;;18.10;44.70;;;;;;8236904;28;19914;-53
2021/10/17 20:17:47;;;;;;;;;;;18.10;44.70;;;;;;8237301;28;19910;-51
2021/10/17 20:21:48;;;;;;;;;;;18.10;44.70;;;;;;8236733;28;19914;-50
2021/10/17 20:25:48;;;;;;;;;;;18.10;44.70;;;;;;8236528;28;19926;-51
2021/10/17 20:29:49;;;;;;;;;;;18.10;44.70;;;;;;8236107;28;19914;-51
2021/10/17 20:33:50;;;;;;;;;;;18.10;44.70;;;;;;8237158;28;19910;-48
2021/10/17 20:41:51;;;;;;;;;;;18.10;44.70;;;;;;8236014;28;19917;-51
2021/10/17 20:45:52;;;;;;;;;;;18.10;44.70;;;;;;8236074;28;20306;-52
2021/10/17 20:49:53;;;;;;;;;;;18.10;44.70;;;;;;8236150;28;19917;-51
2021/10/17 20:53:53;;;;;;;;;;;18.10;44.70;;;;;;8236353;28;20386;-53
2021/10/17 20:57:53;;;;;;;;;;;18.10;44.60;;;;;;8230608;28;19985;-50
2021/10/17 21:01:56;;;;;;;;;;;18.10;44.60;;;;;;8235469;28;20419;-49
2021/10/17 21:05:56;;;;;;;;;;;18.10;44.60;;;;;;8235015;28;20430;-49
2021/10/17 21:09:58;;;;;;;;;;;18.10;44.60;;;;;;8236227;28;19914;-49
2021/10/17 21:13:58;;;;;;;;;;;18.10;44.60;;;;;;8235177;28;19914;-49
2021/10/17 21:17:59;;;;;;;;;;;18.10;44.70;;;;;;8234614;28;19917;-49
2021/10/17 21:21:59;;;;;;;;;;;18.10;44.60;;;;;;8234874;28;19918;-49
2021/10/17 21:26:00;;;;;;;;;;;18.10;44.60;;;;;;8235491;28;19918;-51
2021/10/17 21:30:00;;;;;;;;;;;18.10;44.60;;;;;;8234373;28;20399;-49
2021/10/17 21:34:01;;;;;;;;;;;18.00;44.50;;;;;;8234730;28;19914;-49
2021/10/17 21:38:01;;;;;;;;;;;18.10;44.60;;;;;;8234397;28;19921;-52
2021/10/17 21:42:02;;;;;;;;;;;18.00;44.50;;;;;;8233960;28;19922;-50
2021/10/17 21:46:02;;;;;;;;;;;18.00;44.50;;;;;;8235165;28;19964;-51
2021/10/17 21:50:03;;;;;;;;;;;18.00;44.50;;;;;;8233942;28;19969;-53
2021/10/17 21:54:04;;;;;;;;;;;18.00;44.50;;;;;;8233710;28;20276;-51
2021/10/17 21:58:06;;;;;;;;;;;18.00;44.50;;;;;;8234070;28;19945;-49
2021/10/17 22:02:06;;;;;;;;;;;18.10;44.60;;;;;;8233566;28;19967;-49
2021/10/17 22:06:08;;;;;;;;;;;18.00;44.50;;;;;;8232524;28;20490;-50
2021/10/17 22:10:08;;;;;;;;;;;18.00;44.50;;;;;;8233723;28;20327;-53
2021/10/17 22:14:09;;;;;;;;;;;18.00;44.40;;;;;;8233284;28;19914;-53
2021/10/17 22:18:09;;;;;;;;;;;18.00;44.40;;;;;;8233735;28;19969;-50
2021/10/17 22:22:09;;;;;;;;;;;18.00;44.50;;;;;;8233483;28;19969;-51
2021/10/17 22:26:13;;;;;;;;;;;18.00;44.50;;;;;;8233363;28;19965;-51
2021/10/17 22:30:14;;;;;;;;;;;18.00;44.50;;;;;;8231167;28;19914;-50
2021/10/17 22:34:14;;;;;;;;;;;18.00;44.40;;;;;;8233536;28;19925;-51
2021/10/17 22:38:15;;;;;;;;;;;18.00;44.50;;;;;;8233910;28;19914;-50
2021/10/17 22:42:15;;;;;;;;;;;18.00;44.50;;;;;;8232560;28;19981;-53
2021/10/17 22:46:16;;;;;;;;;;;17.90;44.40;;;;;;8233173;28;20447;-53
2021/10/17 22:50:17;;;;;;;;;;;18.00;44.50;;;;;;8232751;28;20322;-52
2021/10/17 22:54:17;;;;;;;;;;;17.90;44.40;;;;;;8233596;28;19972;-52
2021/10/17 22:58:18;;;;;;;;;;;17.90;44.40;;;;;;8232787;28;19944;-53
2021/10/17 23:02:18;;;;;;;;;;;17.90;44.40;;;;;;8238933;28;19910;-53
2021/10/17 23:06:19;;;;;;;;;;;17.90;44.40;;;;;;8238595;28;19922;-50
2021/10/17 23:10:19;;;;;;;;;;;17.90;44.40;;;;;;8239274;28;19910;-53
2021/10/17 23:14:20;;;;;;;;;;;17.90;44.40;;;;;;8239602;28;19964;-51
2021/10/17 23:18:20;;;;;;;;;;;17.90;44.40;;;;;;8238253;28;20375;-51
2021/10/17 23:22:21;;;;;;;;;;;17.90;44.40;;;;;;8238808;28;19920;-51
2021/10/17 23:26:21;;;;;;;;;;;17.90;44.40;;;;;;8238344;28;19929;-52